createdAt,value
2019-06-01T00:01:11.527Z,120.27
2019-06-01T00:03:40.767Z,118.63
2019-06-01T00:06:08.169Z,120.17
2019-06-01T00:08:35.634Z,117.90
2019-06-01T00:11:03.188Z,118.87
2019-06-01T00:13:31.037Z,123.63
2019-06-01T00:15:58.410Z,120.00
2019-06-01T00:18:26.849Z,122.20
2019-06-01T00:20:54.943Z,121.93
2019-06-01T00:23:22.756Z,119.43
2019-06-01T00:25:50.307Z,118.87
2019-06-01T00:28:17.791Z,117.67
2019-06-01T00:30:45.811Z,119.43
2019-06-01T00:33:13.315Z,116.10
2019-06-01T00:35:41.306Z,118.90
2019-06-01T00:38:08.860Z,113.63
2019-06-01T00:40:36.575Z,112.03
2019-06-01T00:43:04.026Z,118.47
2019-06-01T00:45:31.424Z,113.57
2019-06-01T00:47:58.839Z,115.03
2019-06-01T00:50:26.192Z,116.00
2019-06-01T00:52:53.586Z,114.50
2019-06-01T00:55:20.914Z,114.27
2019-06-01T00:57:49.706Z,122.27
2019-06-01T01:00:17.621Z,114.70
2019-06-01T01:02:45.934Z,115.27
2019-06-01T01:05:16.681Z,115.50
2019-06-01T01:07:44.610Z,116.57
2019-06-01T01:10:12.579Z,117.10
2019-06-01T01:12:58.445Z,113.73
2019-06-01T01:15:26.950Z,116.00
2019-06-01T01:17:54.321Z,124.93
2019-06-01T01:20:22.727Z,129.77
2019-06-01T01:22:50.222Z,118.73
2019-06-01T01:25:18.562Z,114.80
2019-06-01T01:27:46.892Z,119.40
2019-06-01T01:30:14.394Z,120.07
2019-06-01T01:32:43.372Z,121.67
2019-06-01T01:35:11.441Z,118.20
2019-06-01T01:37:38.880Z,113.93
2019-06-01T01:40:07.048Z,121.30
2019-06-01T01:42:34.477Z,118.37
2019-06-01T01:45:01.927Z,122.00
2019-06-01T01:47:29.322Z,120.27
2019-06-01T01:49:56.758Z,125.90
2019-06-01T01:52:24.089Z,118.77
2019-06-01T01:54:52.730Z,126.40
2019-06-01T01:57:20.186Z,114.47
2019-06-01T01:59:47.701Z,126.23
2019-06-01T02:02:15.388Z,118.93
2019-06-01T02:04:42.852Z,127.00
2019-06-01T02:07:10.204Z,117.87
2019-06-01T02:09:37.615Z,120.40
2019-06-01T02:12:05.993Z,114.33
2019-06-01T02:14:33.330Z,125.17
2019-06-01T02:17:02.356Z,119.67
2019-06-01T02:19:29.942Z,126.90
2019-06-01T02:21:58.313Z,117.57
2019-06-01T02:24:26.018Z,129.20
2019-06-01T02:26:55.005Z,118.73
2019-06-01T02:29:22.732Z,124.13
2019-06-01T02:31:50.035Z,119.83
2019-06-01T02:34:17.402Z,128.40
2019-06-01T02:36:44.797Z,125.20
2019-06-01T02:39:13.611Z,127.63
2019-06-01T02:41:41.177Z,115.93
2019-06-01T02:44:08.818Z,126.87
2019-06-01T02:46:36.375Z,115.10
2019-06-01T02:49:06.096Z,125.93
2019-06-01T02:51:33.564Z,116.83
2019-06-01T02:54:01.748Z,118.23
2019-06-01T02:56:30.147Z,116.07
2019-06-01T02:58:58.259Z,116.57
2019-06-01T03:01:35.003Z,113.47
2019-06-01T03:04:08.130Z,115.77
2019-06-01T03:06:37.873Z,111.90
2019-06-01T03:09:08.883Z,122.43
2019-06-01T03:11:37.375Z,112.43
2019-06-01T03:14:06.879Z,121.63
2019-06-01T03:16:40.089Z,115.67
2019-06-01T03:19:08.045Z,124.57
2019-06-01T03:21:36.160Z,112.90
2019-06-01T03:24:08.177Z,122.77
2019-06-01T03:26:41.250Z,118.33
2019-06-01T03:29:16.315Z,119.70
2019-06-01T03:31:44.421Z,111.37
2019-06-01T03:34:13.971Z,128.63
2019-06-01T03:36:41.919Z,117.37
2019-06-01T03:39:10.686Z,127.57
2019-06-01T03:41:38.199Z,117.50
2019-06-01T03:44:06.543Z,122.23
2019-06-01T03:46:34.135Z,115.93
2019-06-01T03:49:01.507Z,120.23
2019-06-01T03:51:29.433Z,113.00
2019-06-01T03:53:57.010Z,117.60
2019-06-01T03:56:24.480Z,124.70
2019-06-01T03:58:52.249Z,116.93
2019-06-01T04:01:19.739Z,119.90
2019-06-01T04:03:47.233Z,119.87
2019-06-01T04:06:15.011Z,122.10
2019-06-01T04:08:42.418Z,116.47
2019-06-01T04:11:09.917Z,122.90
2019-06-01T04:13:37.358Z,120.50
2019-06-01T04:16:05.827Z,124.13
2019-06-01T04:18:33.710Z,113.37
2019-06-01T04:21:02.346Z,114.43
2019-06-01T04:23:29.842Z,114.30
2019-06-01T04:25:57.157Z,112.07
2019-06-01T04:28:24.593Z,114.97
2019-06-01T04:30:51.977Z,113.47
2019-06-01T04:33:19.286Z,121.17
2019-06-01T04:35:46.723Z,111.10
2019-06-01T04:38:14.047Z,114.70
2019-06-01T04:40:41.371Z,115.60
2019-06-01T04:43:09.842Z,112.67
2019-06-01T04:45:37.642Z,117.07
2019-06-01T04:48:06.410Z,112.17
2019-06-01T04:50:33.990Z,119.67
2019-06-01T04:53:01.303Z,114.27
2019-06-01T04:55:29.214Z,113.00
2019-06-01T04:57:56.717Z,113.93
2019-06-01T05:00:27.951Z,116.87
2019-06-01T05:03:04.843Z,119.73
2019-06-01T05:05:24.365Z,125.47
2019-06-01T05:07:52.391Z,121.70
2019-06-01T05:10:20.049Z,118.50
2019-06-01T05:12:48.627Z,118.27
2019-06-01T05:15:19.160Z,126.30
2019-06-01T05:17:47.060Z,116.27
2019-06-01T05:20:15.055Z,119.40
2019-06-01T05:22:43.387Z,121.30
2019-06-01T05:25:12.200Z,124.73
2019-06-01T05:27:40.742Z,117.80
2019-06-01T05:30:09.542Z,119.67
2019-06-01T05:32:38.044Z,118.43
2019-06-01T05:35:07.723Z,131.20
2019-06-01T05:37:35.422Z,119.10
2019-06-01T05:40:05.024Z,130.00
2019-06-01T05:42:32.691Z,125.57
2019-06-01T05:45:02.138Z,132.27
2019-06-01T05:47:32.664Z,126.37
2019-06-01T05:50:00.349Z,123.37
2019-06-01T05:52:27.941Z,121.73
2019-06-01T05:54:55.261Z,124.47
2019-06-01T05:57:23.286Z,133.87
2019-06-01T05:59:50.826Z,130.97
2019-06-01T06:02:19.578Z,121.40
2019-06-01T06:04:47.049Z,131.30
2019-06-01T06:07:14.798Z,121.17
2019-06-01T06:09:42.336Z,129.07
2019-06-01T06:12:11.169Z,121.73
2019-06-01T06:14:38.775Z,139.57
2019-06-01T06:17:06.134Z,119.43
2019-06-01T06:19:33.788Z,141.70
2019-06-01T06:22:01.689Z,123.87
2019-06-01T06:24:29.757Z,134.20
2019-06-01T06:26:57.219Z,125.03
2019-06-01T06:29:25.103Z,128.30
2019-06-01T06:31:52.683Z,143.47
2019-06-01T06:34:21.590Z,140.17
2019-06-01T06:36:51.261Z,132.80
2019-06-01T06:39:19.927Z,150.30
2019-06-01T06:41:47.579Z,133.63
2019-06-01T06:44:16.382Z,160.00
2019-06-01T06:46:44.540Z,166.30
2019-06-01T06:49:12.503Z,160.93
2019-06-01T06:51:40.054Z,147.50
2019-06-01T06:54:07.824Z,154.13
2019-06-01T06:56:36.403Z,145.50
2019-06-01T06:59:04.295Z,168.03
2019-06-01T07:01:32.761Z,148.37
2019-06-01T07:04:12.123Z,165.07
2019-06-01T07:06:32.008Z,143.23
2019-06-01T07:08:59.770Z,147.40
2019-06-01T07:11:27.575Z,145.13
2019-06-01T07:13:59.732Z,161.00
2019-06-01T07:16:27.641Z,145.53
2019-06-01T07:18:55.091Z,138.63
2019-06-01T07:21:23.650Z,142.50
2019-06-01T07:23:53.744Z,149.93
2019-06-01T07:26:21.901Z,139.43
2019-06-01T07:28:49.371Z,136.43
2019-06-01T07:31:16.744Z,143.23
2019-06-01T07:33:47.429Z,141.27
2019-06-01T07:36:14.903Z,153.97
2019-06-01T07:38:42.453Z,133.57
2019-06-01T07:41:09.901Z,139.67
2019-06-01T07:43:37.430Z,130.47
2019-06-01T07:46:05.114Z,147.17
2019-06-01T07:48:33.462Z,146.63
2019-06-01T07:51:01.127Z,140.23
2019-06-01T07:53:29.571Z,127.57
2019-06-01T07:55:57.454Z,142.70
2019-06-01T07:58:24.783Z,136.20
2019-06-01T08:00:52.960Z,139.70
2019-06-01T08:03:28.709Z,142.83
2019-06-01T08:05:57.867Z,142.97
2019-06-01T08:08:31.968Z,139.87
2019-06-01T08:11:00.426Z,134.53
2019-06-01T08:13:31.510Z,136.10
2019-06-01T08:15:58.054Z,146.00
2019-06-01T08:18:26.075Z,145.47
2019-06-01T08:20:56.474Z,136.50
2019-06-01T08:23:24.221Z,140.43
2019-06-01T08:25:52.106Z,154.40
2019-06-01T08:28:22.364Z,142.37
2019-06-01T08:30:51.626Z,138.40
2019-06-01T08:33:19.321Z,141.97
2019-06-01T08:35:46.801Z,141.53
2019-06-01T08:38:15.294Z,147.17
2019-06-01T08:40:44.248Z,145.20
2019-06-01T08:43:12.319Z,145.27
2019-06-01T08:45:39.876Z,140.87
2019-06-01T08:48:07.725Z,132.03
2019-06-01T08:50:35.131Z,146.83
2019-06-01T08:53:02.902Z,138.10
2019-06-01T08:55:30.252Z,136.27
2019-06-01T08:57:58.161Z,142.23
2019-06-01T09:00:26.425Z,143.13
2019-06-01T09:02:53.951Z,141.53
2019-06-01T09:05:25.837Z,145.73
2019-06-01T09:07:50.919Z,144.47
2019-06-01T09:10:18.503Z,151.17
2019-06-01T09:12:50.153Z,149.77
2019-06-01T09:15:18.797Z,144.90
2019-06-01T09:17:47.582Z,140.10
2019-06-01T09:20:15.295Z,140.43
2019-06-01T09:22:42.961Z,154.73
2019-06-01T09:25:10.555Z,135.53
2019-06-01T09:27:38.289Z,141.83
2019-06-01T09:30:06.787Z,137.77
2019-06-01T09:32:34.502Z,138.33
2019-06-01T09:35:02.608Z,144.17
2019-06-01T09:37:30.538Z,138.97
2019-06-01T09:39:58.243Z,143.23
2019-06-01T09:42:26.706Z,135.47
2019-06-01T09:44:54.277Z,142.80
2019-06-01T09:47:21.604Z,137.73
2019-06-01T09:49:49.029Z,149.27
2019-06-01T09:52:16.365Z,145.50
2019-06-01T09:54:43.883Z,140.17
2019-06-01T09:57:11.571Z,136.53
2019-06-01T09:59:39.171Z,140.87
2019-06-01T10:02:06.675Z,142.30
2019-06-01T10:04:34.486Z,157.82
2019-06-01T10:07:02.246Z,137.47
2019-06-01T10:09:29.794Z,146.70
2019-06-01T10:11:57.313Z,147.10
2019-06-01T10:14:25.339Z,146.50
2019-06-01T10:16:54.808Z,133.70
2019-06-01T10:19:22.457Z,143.97
2019-06-01T10:21:49.948Z,135.03
2019-06-01T10:24:17.325Z,146.27
2019-06-01T10:26:45.296Z,137.43
2019-06-01T10:29:12.954Z,148.43
2019-06-01T10:31:41.778Z,141.17
2019-06-01T10:34:11.867Z,149.10
2019-06-01T10:36:43.375Z,155.78
2019-06-01T10:39:11.073Z,148.10
2019-06-01T10:41:39.656Z,150.80
2019-06-01T10:44:07.196Z,154.57
2019-06-01T10:46:35.805Z,153.82
2019-06-01T10:49:03.629Z,152.20
2019-06-01T10:51:32.054Z,154.05
2019-06-01T10:53:59.873Z,151.07
2019-06-01T10:56:27.207Z,135.70
2019-06-01T10:59:00.367Z,142.43
2019-06-01T11:01:23.897Z,142.30
2019-06-01T11:03:51.272Z,151.80
2019-06-01T11:06:27.454Z,141.33
2019-06-01T11:08:48.001Z,138.93
2019-06-01T11:11:15.430Z,144.83
2019-06-01T11:13:43.295Z,138.20
2019-06-01T11:16:10.893Z,139.67
2019-06-01T11:18:39.633Z,141.53
2019-06-01T11:21:07.273Z,132.97
2019-06-01T11:23:35.564Z,135.03
2019-06-01T11:26:03.075Z,133.20
2019-06-01T11:28:30.927Z,136.60
2019-06-01T11:30:58.299Z,140.83
2019-06-01T11:33:26.012Z,143.87
2019-06-01T11:35:53.586Z,133.60
2019-06-01T11:38:21.136Z,145.73
2019-06-01T11:40:48.727Z,136.63
2019-06-01T11:43:17.486Z,141.80
2019-06-01T11:45:45.300Z,140.60
2019-06-01T11:48:13.182Z,140.97
2019-06-01T11:50:41.268Z,140.03
2019-06-01T11:53:10.269Z,139.60
2019-06-01T11:55:39.232Z,146.30
2019-06-01T11:58:06.853Z,133.70
2019-06-01T12:00:35.364Z,147.50
2019-06-01T12:03:03.590Z,138.77
2019-06-01T12:05:31.889Z,144.90
2019-06-01T12:08:01.900Z,134.20
2019-06-01T12:10:29.952Z,142.03
2019-06-01T12:12:58.104Z,134.63
2019-06-01T12:15:26.996Z,133.57
2019-06-01T12:17:54.837Z,132.80
2019-06-01T12:20:22.325Z,127.63
2019-06-01T12:22:49.814Z,154.65
2019-06-01T12:25:17.171Z,139.47
2019-06-01T12:27:46.108Z,136.20
2019-06-01T12:30:14.033Z,168.00
2019-06-01T12:32:43.941Z,137.17
2019-06-01T12:35:13.162Z,136.57
2019-06-01T12:37:59.568Z,146.10
2019-06-01T12:40:13.055Z,134.80
2019-06-01T12:42:41.519Z,139.93
2019-06-01T12:45:16.173Z,134.80
2019-06-01T12:47:43.963Z,158.78
2019-06-01T12:50:20.292Z,139.53
2019-06-01T12:52:50.122Z,145.67
2019-06-01T12:55:17.938Z,143.03
2019-06-01T12:57:45.430Z,141.40
2019-06-01T13:00:13.243Z,153.53
2019-06-01T13:02:44.785Z,139.90
2019-06-01T13:05:10.751Z,136.23
2019-06-01T13:07:50.879Z,140.27
2019-06-01T13:10:09.479Z,145.00
2019-06-01T13:12:37.723Z,151.30
2019-06-01T13:15:08.761Z,133.83
2019-06-01T13:17:36.439Z,137.87
2019-06-01T13:20:05.181Z,138.30
2019-06-01T13:22:32.693Z,139.07
2019-06-01T13:25:00.197Z,137.50
2019-06-01T13:27:28.045Z,134.53
2019-06-01T13:29:55.458Z,139.73
2019-06-01T13:32:22.885Z,133.80
2019-06-01T13:35:11.080Z,157.18
2019-06-01T13:37:39.172Z,130.80
2019-06-01T13:40:06.863Z,138.13
2019-06-01T13:42:36.672Z,139.37
2019-06-01T13:45:06.478Z,149.93
2019-06-01T13:47:33.916Z,132.27
2019-06-01T13:50:08.112Z,140.33
2019-06-01T13:52:43.882Z,127.23
2019-06-01T13:55:15.391Z,126.97
2019-06-01T13:57:44.162Z,133.73
2019-06-01T14:00:15.395Z,128.63
2019-06-01T14:02:41.709Z,131.77
2019-06-01T14:05:09.391Z,134.97
2019-06-01T14:07:37.758Z,125.00
2019-06-01T14:10:08.691Z,146.27
2019-06-01T14:12:36.363Z,131.90
2019-06-01T14:15:04.238Z,135.10
2019-06-01T14:17:33.870Z,137.67
2019-06-01T14:20:02.964Z,136.77
2019-06-01T14:22:30.419Z,130.83
2019-06-01T14:25:12.004Z,145.73
2019-06-01T14:27:31.324Z,160.27
2019-06-01T14:29:58.998Z,141.50
2019-06-01T14:32:26.626Z,134.27
2019-06-01T14:34:54.898Z,145.33
2019-06-01T14:37:22.513Z,133.47
2019-06-01T14:39:50.813Z,151.90
2019-06-01T14:42:18.448Z,127.93
2019-06-01T14:44:47.188Z,143.73
2019-06-01T14:47:18.493Z,132.53
2019-06-01T14:49:44.483Z,137.37
2019-06-01T14:52:12.044Z,139.33
2019-06-01T14:54:40.234Z,144.33
2019-06-01T14:57:07.885Z,130.63
2019-06-01T14:59:35.438Z,156.80
2019-06-01T15:02:04.675Z,132.00
2019-06-01T15:04:36.565Z,144.10
2019-06-01T15:07:04.728Z,135.73
2019-06-01T15:09:35.456Z,144.27
2019-06-01T15:12:04.556Z,133.57
2019-06-01T15:14:32.164Z,148.60
2019-06-01T15:16:59.646Z,132.90
2019-06-01T15:19:27.066Z,143.63
2019-06-01T15:21:54.519Z,127.40
2019-06-01T15:24:21.983Z,154.60
2019-06-01T15:26:50.453Z,131.50
2019-06-01T15:29:19.942Z,145.63
2019-06-01T15:31:47.594Z,128.83
2019-06-01T15:34:15.159Z,146.63
2019-06-01T15:36:43.568Z,145.57
2019-06-01T15:39:24.169Z,143.17
2019-06-01T15:41:40.436Z,132.90
2019-06-01T15:44:07.790Z,136.27
2019-06-01T15:46:35.209Z,135.20
2019-06-01T15:49:03.008Z,141.07
2019-06-01T15:51:30.370Z,133.50
2019-06-01T15:53:59.031Z,133.13
2019-06-01T15:56:26.743Z,129.97
2019-06-01T15:58:58.060Z,147.90
2019-06-01T16:01:25.411Z,135.20
2019-06-01T16:03:54.968Z,135.87
2019-06-01T16:06:22.593Z,132.10
2019-06-01T16:08:50.167Z,134.77
2019-06-01T16:11:17.523Z,129.40
2019-06-01T16:13:45.365Z,142.60
2019-06-01T16:16:13.630Z,144.73
2019-06-01T16:18:40.958Z,131.97
2019-06-01T16:21:08.581Z,130.07
2019-06-01T16:23:49.541Z,128.73
2019-06-01T16:26:15.718Z,131.40
2019-06-01T16:28:35.794Z,136.77
2019-06-01T16:31:04.819Z,131.33
2019-06-01T16:33:34.244Z,130.57
2019-06-01T16:36:05.605Z,126.17
2019-06-01T16:38:33.349Z,146.50
2019-06-01T16:41:01.354Z,135.50
2019-06-01T16:43:29.881Z,129.17
2019-06-01T16:45:57.665Z,147.47
2019-06-01T16:48:25.548Z,133.53
2019-06-01T16:50:53.181Z,146.53
2019-06-01T16:53:20.744Z,136.47
2019-06-01T16:55:48.238Z,132.20
2019-06-01T16:58:16.291Z,135.60
2019-06-01T17:00:44.411Z,136.73
2019-06-01T17:03:13.673Z,137.27
2019-06-01T17:05:41.576Z,136.73
2019-06-01T17:08:09.090Z,127.57
2019-06-01T17:10:36.803Z,134.80
2019-06-01T17:13:07.337Z,136.03
2019-06-01T17:15:35.956Z,145.93
2019-06-01T17:18:07.055Z,154.87
2019-06-01T17:20:46.520Z,140.93
2019-06-01T17:23:27.379Z,157.50
2019-06-01T17:25:47.916Z,129.93
2019-06-01T17:28:15.818Z,131.07
2019-06-01T17:30:47.085Z,133.83
2019-06-01T17:33:15.057Z,126.27
2019-06-01T17:35:42.585Z,127.87
2019-06-01T17:38:12.190Z,132.13
2019-06-01T17:40:43.170Z,135.43
2019-06-01T17:43:10.263Z,128.27
2019-06-01T17:45:38.104Z,138.57
2019-06-01T17:48:23.086Z,128.70
2019-06-01T17:50:36.061Z,124.33
2019-06-01T17:53:04.679Z,130.93
2019-06-01T17:55:35.561Z,140.87
2019-06-01T17:58:03.738Z,130.03
2019-06-01T18:00:31.952Z,152.97
2019-06-01T18:02:59.602Z,127.00
2019-06-01T18:05:27.188Z,127.07
2019-06-01T18:07:54.694Z,129.60
2019-06-01T18:10:23.832Z,136.57
2019-06-01T18:12:52.021Z,125.23
2019-06-01T18:15:19.747Z,136.03
2019-06-01T18:17:47.207Z,129.07
2019-06-01T18:20:15.270Z,140.40
2019-06-01T18:22:42.884Z,123.73
2019-06-01T18:25:18.007Z,132.63
2019-06-01T18:27:45.440Z,131.37
2019-06-01T18:30:13.404Z,135.60
2019-06-01T18:32:41.127Z,144.23
2019-06-01T18:35:09.343Z,135.03
2019-06-01T18:37:36.923Z,133.97
2019-06-01T18:40:07.605Z,128.63
2019-06-01T18:42:37.149Z,133.17
2019-06-01T18:45:05.674Z,133.00
2019-06-01T18:47:34.515Z,135.87
2019-06-01T18:50:04.017Z,143.37
2019-06-01T18:52:32.150Z,132.10
2019-06-01T18:55:04.509Z,138.87
2019-06-01T18:57:36.180Z,129.63
2019-06-01T19:00:13.571Z,133.87
2019-06-01T19:02:47.575Z,138.63
2019-06-01T19:05:15.923Z,135.03
2019-06-01T19:07:43.246Z,139.73
2019-06-01T19:10:12.547Z,139.40
2019-06-01T19:12:42.231Z,135.07
2019-06-01T19:15:26.169Z,144.93
2019-06-01T19:17:47.430Z,139.87
2019-06-01T19:20:18.760Z,145.53
2019-06-01T19:22:47.400Z,145.33
2019-06-01T19:25:16.988Z,146.50
2019-06-01T19:28:39.992Z,130.70
2019-06-01T19:31:08.820Z,151.13
2019-06-01T19:33:37.753Z,141.83
2019-06-01T19:36:06.648Z,134.27
2019-06-01T19:38:36.385Z,138.90
2019-06-01T19:41:05.250Z,133.07
2019-06-01T19:43:33.879Z,139.03
2019-06-01T19:46:02.135Z,139.93
2019-06-01T19:48:29.794Z,145.13
2019-06-01T19:50:57.525Z,142.67
2019-06-01T19:53:25.302Z,137.10
2019-06-01T19:55:53.101Z,135.73
2019-06-01T19:58:22.452Z,137.83
2019-06-01T20:00:50.500Z,134.03
2019-06-01T20:03:20.691Z,133.17
2019-06-01T20:05:47.998Z,133.17
2019-06-01T20:08:16.255Z,158.83
2019-06-01T20:10:44.072Z,141.17
2019-06-01T20:13:11.645Z,135.07
2019-06-01T20:15:39.131Z,134.00
2019-06-01T20:18:06.755Z,136.40
2019-06-01T20:20:34.253Z,136.00
2019-06-01T20:23:01.688Z,131.73
2019-06-01T20:25:33.131Z,131.60
2019-06-01T20:28:00.535Z,138.40
2019-06-01T20:30:28.391Z,134.77
2019-06-01T20:32:55.989Z,132.57
2019-06-01T20:35:23.490Z,136.27
2019-06-01T20:37:51.003Z,134.03
2019-06-01T20:40:18.569Z,143.80
2019-06-01T20:42:46.240Z,128.17
2019-06-01T20:45:16.923Z,130.50
2019-06-01T20:47:44.476Z,136.77
2019-06-01T20:50:13.006Z,144.93
2019-06-01T20:52:40.701Z,130.93
2019-06-01T20:55:09.670Z,142.47
2019-06-01T20:57:37.258Z,131.63
2019-06-01T21:00:07.316Z,132.43
2019-06-01T21:02:34.936Z,132.57
2019-06-01T21:05:17.788Z,141.33
2019-06-01T21:07:45.473Z,129.97
2019-06-01T21:10:16.132Z,133.20
2019-06-01T21:12:45.712Z,126.90
2019-06-01T21:15:15.271Z,132.57
2019-06-01T21:17:42.967Z,151.57
2019-06-01T21:20:11.512Z,135.93
2019-06-01T21:22:38.927Z,127.70
2019-06-01T21:25:07.031Z,133.87
2019-06-01T21:27:34.642Z,129.13
2019-06-01T21:30:02.551Z,140.63
2019-06-01T21:32:31.612Z,132.40
2019-06-01T21:34:59.003Z,134.97
2019-06-01T21:37:26.539Z,134.40
2019-06-01T21:39:54.115Z,136.17
2019-06-01T21:42:21.806Z,132.97
2019-06-01T21:44:51.363Z,141.17
2019-06-01T21:47:19.617Z,132.03
2019-06-01T21:49:47.076Z,146.30
2019-06-01T21:52:15.706Z,134.00
2019-06-01T21:54:43.426Z,142.80
2019-06-01T21:57:10.987Z,135.33
2019-06-01T21:59:38.334Z,158.63
2019-06-01T22:02:06.484Z,137.60
2019-06-01T22:04:35.268Z,140.77
2019-06-01T22:07:02.898Z,129.00
2019-06-01T22:09:30.306Z,137.83
2019-06-01T22:11:57.771Z,126.80
2019-06-01T22:14:26.022Z,137.37
2019-06-01T22:16:53.687Z,124.33
2019-06-01T22:19:23.850Z,139.97
2019-06-01T22:21:51.464Z,131.87
2019-06-01T22:24:19.728Z,142.57
2019-06-01T22:26:47.193Z,147.00
2019-06-01T22:29:14.650Z,144.87
2019-06-01T22:31:42.115Z,127.70
2019-06-01T22:34:09.756Z,155.33
2019-06-01T22:36:37.128Z,131.00
2019-06-01T22:39:07.470Z,143.57
2019-06-01T22:41:35.780Z,129.37
2019-06-01T22:44:03.812Z,134.47
2019-06-01T22:46:31.129Z,136.00
2019-06-01T22:48:58.456Z,134.67
2019-06-01T22:51:27.123Z,131.37
2019-06-01T22:53:54.818Z,126.83
2019-06-01T22:56:23.183Z,131.80
2019-06-01T22:58:50.997Z,152.40
2019-06-01T23:01:20.784Z,142.53
2019-06-01T23:03:48.607Z,131.17
2019-06-01T23:06:16.025Z,134.60
2019-06-01T23:08:43.882Z,135.23
2019-06-01T23:11:11.586Z,129.43
2019-06-01T23:13:52.329Z,128.80
2019-06-01T23:16:08.235Z,127.27
2019-06-01T23:18:35.702Z,127.83
2019-06-01T23:21:03.387Z,121.77
2019-06-01T23:23:32.310Z,126.33
2019-06-01T23:25:59.837Z,131.77
2019-06-01T23:28:28.649Z,130.30
2019-06-01T23:30:56.341Z,142.87
2019-06-01T23:33:24.743Z,128.80
2019-06-01T23:35:53.508Z,144.00
2019-06-01T23:38:22.535Z,134.17
2019-06-01T23:40:50.635Z,121.93
2019-06-01T23:43:18.010Z,127.90
2019-06-01T23:45:45.742Z,126.10
2019-06-01T23:48:13.064Z,134.23
2019-06-01T23:50:40.614Z,129.73
2019-06-01T23:53:13.668Z,131.93
2019-06-01T23:55:38.631Z,148.43
2019-06-01T23:58:06.105Z,132.47
